Time;durP1;ratioP1;P1;durP2;ratioP2;P2;SDS_P1;SDS_P2;PMS_P1;PMS_P2;Temp;Humidity;BMP_temperature;BMP_pressure;BME280_temperature;BME280_humidity;BME280_pressure;Samples;Min_cycle;Max_cycle;Signal;HPM_P1;HPM_P2
2022/12/12 00:01:44;;;;;;;44.83;20.23;;;1.30;99.90;;;;;;5065020;28;20032;-74
2022/12/12 00:04:09;;;;;;;42.40;19.50;;;1.40;99.90;;;;;;5054570;28;20040;-74
2022/12/12 00:06:36;;;;;;;45.10;20.23;;;1.30;99.90;;;;;;5057581;28;20125;-75
2022/12/12 00:09:02;;;;;;;45.15;20.15;;;1.30;99.90;;;;;;5052614;28;20032;-75
2022/12/12 00:11:28;;;;;;;40.30;19.75;;;1.30;99.90;;;;;;5049118;28;20108;-74
2022/12/12 00:13:54;;;;;;;44.45;19.55;;;1.40;99.90;;;;;;5051283;28;20047;-75
2022/12/12 00:16:21;;;;;;;44.45;19.98;;;1.30;99.90;;;;;;5066104;28;20040;-74
2022/12/12 00:18:47;;;;;;;46.92;20.27;;;1.30;99.90;;;;;;5058393;28;20857;-75
2022/12/12 00:21:22;;;;;;;45.33;21.30;;;1.30;99.90;;;;;;5045661;28;20035;-75
2022/12/12 00:23:48;;;;;;;44.28;19.63;;;1.30;99.90;;;;;;5041919;28;20037;-75
2022/12/12 00:26:21;;;;;;;43.55;20.98;;;1.30;99.90;;;;;;5038751;28;20091;-74
2022/12/12 00:28:47;;;;;;;42.17;19.00;;;1.30;99.90;;;;;;5043210;28;20063;-75
2022/12/12 00:31:13;;;;;;;46.47;19.75;;;1.30;99.90;;;;;;5044469;28;20056;-74
2022/12/12 00:33:39;;;;;;;45.38;18.85;;;1.30;99.90;;;;;;5041527;28;20040;-75
2022/12/12 00:36:05;;;;;;;53.22;20.75;;;1.30;99.90;;;;;;5034016;28;20025;-75
2022/12/12 00:38:31;;;;;;;55.80;21.50;;;1.30;99.90;;;;;;5039006;28;20172;-75
2022/12/12 00:40:58;;;;;;;49.05;21.02;;;1.30;99.90;;;;;;5037771;28;20120;-74
2022/12/12 00:43:25;;;;;;;44.75;19.63;;;1.30;99.90;;;;;;5035604;28;20395;-75
2022/12/12 00:45:50;;;;;;;48.17;20.20;;;1.30;99.90;;;;;;5028971;28;20083;-74
2022/12/12 00:48:16;;;;;;;44.33;19.67;;;1.30;99.90;;;;;;5040479;28;20029;-74
2022/12/12 00:50:42;;;;;;;48.30;21.60;;;1.40;99.90;;;;;;5026452;28;20029;-73
2022/12/12 00:53:07;;;;;;;50.15;20.45;;;1.40;99.90;;;;;;5026856;28;20101;-74
2022/12/12 00:55:33;;;;;;;50.50;21.15;;;1.40;99.90;;;;;;5039266;28;20064;-76
2022/12/12 00:57:59;;;;;;;42.35;18.95;;;1.40;99.90;;;;;;5046776;28;20574;-76
2022/12/12 01:00:24;;;;;;;46.75;20.27;;;1.40;99.90;;;;;;5058537;28;20033;-74
2022/12/12 01:02:50;;;;;;;49.17;19.88;;;1.40;99.90;;;;;;5051162;28;20021;-74
2022/12/12 01:05:16;;;;;;;39.47;16.98;;;1.30;99.90;;;;;;5065639;28;20036;-75
2022/12/12 01:07:42;;;;;;;39.17;17.15;;;1.30;99.90;;;;;;5066558;28;20033;-76
2022/12/12 01:10:08;;;;;;;47.80;17.83;;;1.30;99.90;;;;;;5068354;28;20031;-75
2022/12/12 01:12:34;;;;;;;46.97;19.83;;;1.30;99.90;;;;;;5048381;28;20447;-75
2022/12/12 01:15:00;;;;;;;42.08;18.13;;;1.30;99.90;;;;;;5054582;28;20043;-74
2022/12/12 01:17:26;;;;;;;56.78;20.27;;;1.30;99.90;;;;;;5056195;28;20035;-75
2022/12/12 01:19:52;;;;;;;50.83;20.40;;;1.30;99.90;;;;;;5060143;28;20406;-76
2022/12/12 01:22:18;;;;;;;57.60;20.92;;;1.30;99.90;;;;;;5035244;28;20040;-75
2022/12/12 01:24:44;;;;;;;56.67;22.38;;;1.30;99.90;;;;;;5039048;28;20209;-74
2022/12/12 01:27:09;;;;;;;56.13;21.50;;;1.30;99.90;;;;;;5051746;28;20030;-76
2022/12/12 01:29:35;;;;;;;55.92;22.63;;;1.30;99.90;;;;;;5056584;28;20129;-75
2022/12/12 01:32:01;;;;;;;58.80;22.80;;;1.30;99.90;;;;;;5057346;28;20037;-76
2022/12/12 01:34:26;;;;;;;62.22;22.48;;;1.30;99.90;;;;;;5050753;28;20549;-76
2022/12/12 01:36:52;;;;;;;59.75;22.50;;;1.30;99.90;;;;;;5053203;28;20024;-74
2022/12/12 01:39:17;;;;;;;63.10;22.92;;;1.30;99.90;;;;;;5036123;28;20025;-76
2022/12/12 01:41:43;;;;;;;57.45;22.52;;;1.30;99.90;;;;;;5046715;28;20082;-77
2022/12/12 01:44:44;;;;;;;52.38;21.55;;;1.30;99.90;;;;;;5055362;28;20029;-77
2022/12/12 01:47:12;;;;;;;57.67;20.95;;;1.30;99.90;;;;;;5035180;28;20050;-77
2022/12/12 01:49:41;;;;;;;59.33;20.52;;;1.30;99.90;;;;;;5056071;28;20027;-76
2022/12/12 01:52:12;;;;;;;54.85;20.73;;;1.40;99.90;;;;;;5053727;28;20030;-75
2022/12/12 01:54:42;;;;;;;48.55;20.33;;;1.30;99.90;;;;;;5029137;28;20738;-76
2022/12/12 01:57:13;;;;;;;45.95;20.13;;;1.30;99.90;;;;;;5052540;28;20032;-76
2022/12/12 01:59:40;;;;;;;43.30;17.52;;;1.40;99.90;;;;;;5065004;28;20044;-76
2022/12/12 02:02:06;;;;;;;44.95;18.35;;;1.30;99.90;;;;;;5066166;28;20553;-76
2022/12/12 02:04:33;;;;;;;31.90;15.20;;;1.30;99.90;;;;;;5058055;28;20049;-75
2022/12/12 02:06:58;;;;;;;37.22;16.48;;;1.30;99.90;;;;;;5055962;28;20087;-75
2022/12/12 02:09:25;;;;;;;33.45;16.23;;;1.40;99.90;;;;;;5042210;28;20443;-75
2022/12/12 02:11:53;;;;;;;31.15;15.07;;;1.30;99.90;;;;;;5040350;28;20116;-76
2022/12/12 02:14:40;;;;;;;35.80;15.15;;;1.30;99.90;;;;;;5030244;28;20039;-76
2022/12/12 02:17:32;;;;;;;30.85;14.18;;;1.30;99.90;;;;;;5055590;28;20036;-76
2022/12/12 02:20:23;;;;;;;39.25;15.85;;;1.30;99.90;;;;;;5053997;28;20029;-76
2022/12/12 02:23:00;;;;;;;38.75;15.95;;;1.30;99.90;;;;;;5064773;28;20044;-76
2022/12/12 02:25:35;;;;;;;33.03;14.95;;;1.30;99.90;;;;;;5036491;28;20592;-75
2022/12/12 02:28:29;;;;;;;34.50;15.57;;;1.30;99.90;;;;;;5054040;28;20037;-76
2022/12/12 02:31:13;;;;;;;31.92;13.25;;;1.30;99.90;;;;;;5045313;28;20033;-75
2022/12/12 02:33:38;;;;;;;29.85;14.73;;;1.30;99.90;;;;;;5034706;28;20050;-77
2022/12/12 02:36:17;;;;;;;36.80;16.08;;;1.30;99.90;;;;;;5041796;28;20399;-76
2022/12/12 02:38:53;;;;;;;32.85;15.95;;;1.30;99.90;;;;;;5045459;28;20403;-76
2022/12/12 02:41:34;;;;;;;35.50;16.33;;;1.30;99.90;;;;;;5046193;28;20104;-76
2022/12/12 02:44:07;;;;;;;35.33;17.08;;;1.30;99.90;;;;;;5034428;28;20075;-76
2022/12/12 02:46:48;;;;;;;39.25;16.83;;;1.30;99.90;;;;;;5047776;28;20064;-76
2022/12/12 02:49:25;;;;;;;40.53;18.50;;;1.30;99.90;;;;;;5046275;28;20033;-75
2022/12/12 02:51:52;;;;;;;36.22;16.92;;;1.40;99.90;;;;;;5045780;28;20119;-76
2022/12/12 02:54:20;;;;;;;34.22;15.52;;;1.40;99.90;;;;;;5037109;28;20039;-77
2022/12/12 02:56:55;;;;;;;41.35;18.42;;;1.40;99.90;;;;;;5053685;28;20063;-74
2022/12/12 02:59:31;;;;;;;38.42;17.88;;;1.40;99.90;;;;;;5046079;28;20033;-77
2022/12/12 03:02:26;;;;;;;32.80;16.58;;;1.40;99.90;;;;;;5048806;28;20127;-75
2022/12/12 03:08:32;;;;;;;33.72;16.48;;;1.40;99.90;;;;;;5035275;28;20035;-76
2022/12/12 03:11:26;;;;;;;27.27;13.73;;;1.40;99.90;;;;;;5041965;28;20041;-76
2022/12/12 03:13:57;;;;;;;34.65;14.98;;;1.40;99.90;;;;;;5033908;28;20048;-75
2022/12/12 03:16:35;;;;;;;32.65;16.80;;;1.40;99.90;;;;;;5039697;28;20068;-77
2022/12/12 03:19:04;;;;;;;33.17;16.88;;;1.40;99.90;;;;;;5029642;28;20080;-74
2022/12/12 03:21:35;;;;;;;33.78;16.27;;;1.40;99.90;;;;;;5036212;28;20035;-75
2022/12/12 03:24:25;;;;;;;33.22;16.40;;;1.30;99.90;;;;;;5052777;28;20059;-77
2022/12/12 03:26:59;;;;;;;26.98;14.60;;;1.30;99.90;;;;;;5031040;28;20542;-76
2022/12/12 03:29:31;;;;;;;26.27;13.38;;;1.30;99.90;;;;;;5042181;28;20487;-77
2022/12/12 03:32:06;;;;;;;28.95;15.75;;;1.30;99.90;;;;;;5059946;28;20037;-77
2022/12/12 03:34:40;;;;;;;31.92;16.83;;;1.30;99.90;;;;;;5035878;28;20060;-76
2022/12/12 03:37:16;;;;;;;31.88;16.30;;;1.30;99.90;;;;;;5040006;28;20028;-76
2022/12/12 03:39:46;;;;;;;27.80;15.45;;;1.30;99.90;;;;;;5068787;28;20032;-76
2022/12/12 03:42:23;;;;;;;23.55;12.25;;;1.30;99.90;;;;;;5035328;28;21881;-75
2022/12/12 03:44:57;;;;;;;22.00;11.95;;;1.30;99.90;;;;;;5049234;28;20064;-75
2022/12/12 03:47:54;;;;;;;24.60;13.15;;;1.30;99.90;;;;;;5047194;28;20029;-75
2022/12/12 03:50:24;;;;;;;21.67;11.48;;;1.30;99.90;;;;;;5060122;28;20391;-76
2022/12/12 03:53:07;;;;;;;23.40;12.98;;;1.20;99.90;;;;;;5049206;28;20063;-74
2022/12/12 03:55:40;;;;;;;20.02;12.15;;;1.20;99.90;;;;;;5051064;28;20098;-76
2022/12/12 03:58:16;;;;;;;23.98;11.80;;;1.20;99.90;;;;;;5043433;28;20112;-76
2022/12/12 04:00:44;;;;;;;20.35;11.02;;;1.20;99.90;;;;;;5059020;28;20037;-75
2022/12/12 04:03:26;;;;;;;21.92;12.63;;;1.30;99.90;;;;;;5046992;28;20539;-76
2022/12/12 04:12:57;;;;;;;20.50;10.23;;;1.20;99.90;;;;;;5047131;28;20036;-76
2022/12/12 04:14:57;;;;;;;21.77;11.45;;;1.20;99.90;;;;;;5042082;28;20171;-75
2022/12/12 04:17:39;;;;;;;23.45;12.52;;;1.20;99.90;;;;;;5048232;28;20021;-75
2022/12/12 04:23:29;;;;;;;22.70;12.50;;;1.20;99.90;;;;;;5032843;28;20155;-73
2022/12/12 04:29:25;;;;;;;23.63;10.90;;;1.20;99.90;;;;;;5048956;28;20126;-77
2022/12/12 04:31:55;;;;;;;23.20;12.40;;;1.10;99.90;;;;;;5027374;28;20033;-77
2022/12/12 04:34:32;;;;;;;27.55;14.57;;;1.20;99.90;;;;;;5062999;28;20071;-77
2022/12/12 04:37:00;;;;;;;28.90;14.82;;;1.20;99.90;;;;;;5050629;28;20040;-75
2022/12/12 04:39:28;;;;;;;24.92;14.13;;;1.20;99.90;;;;;;5057343;28;20461;-75
2022/12/12 04:41:56;;;;;;;28.75;14.50;;;1.20;99.90;;;;;;5050129;28;20627;-76
2022/12/12 04:44:25;;;;;;;27.92;14.52;;;1.10;99.90;;;;;;5049569;28;20030;-75
2022/12/12 04:46:54;;;;;;;26.27;14.03;;;1.20;99.90;;;;;;5033799;28;20830;-75
2022/12/12 04:49:26;;;;;;;28.80;14.43;;;1.10;99.90;;;;;;5042263;28;20040;-76
2022/12/12 04:51:58;;;;;;;30.00;13.90;;;1.20;99.90;;;;;;5044156;28;20537;-74
2022/12/12 04:54:40;;;;;;;32.88;16.55;;;1.20;99.90;;;;;;5051773;28;20536;-75
2022/12/12 04:57:09;;;;;;;24.38;13.13;;;1.10;99.90;;;;;;5061745;28;20033;-74
2022/12/12 04:59:35;;;;;;;23.50;12.70;;;1.20;99.90;;;;;;5044120;28;20484;-75
2022/12/12 05:02:16;;;;;;;30.83;14.68;;;1.20;99.90;;;;;;5056158;28;20409;-75
2022/12/12 05:05:03;;;;;;;28.33;13.65;;;1.10;99.90;;;;;;5036080;28;20033;-76
2022/12/12 05:07:39;;;;;;;25.08;12.98;;;1.10;99.90;;;;;;5032997;28;20042;-76
2022/12/12 05:10:09;;;;;;;28.40;14.20;;;1.10;99.90;;;;;;5032363;28;20033;-75
2022/12/12 05:12:41;;;;;;;29.58;13.50;;;1.10;99.90;;;;;;5046489;28;20050;-76
2022/12/12 05:15:07;;;;;;;27.00;14.15;;;1.10;99.90;;;;;;5045243;28;20040;-76
2022/12/12 05:17:50;;;;;;;31.95;15.68;;;1.10;99.90;;;;;;5028515;28;20032;-74
2022/12/12 05:20:15;;;;;;;34.13;14.85;;;1.10;99.90;;;;;;5044604;28;20112;-76
2022/12/12 05:22:41;;;;;;;31.50;14.85;;;1.10;99.90;;;;;;5046580;28;20181;-75
2022/12/12 05:25:07;;;;;;;29.45;15.25;;;1.10;99.90;;;;;;5039858;28;20036;-75
2022/12/12 05:27:33;;;;;;;30.08;15.35;;;1.10;99.90;;;;;;5028355;28;20088;-74
2022/12/12 05:29:59;;;;;;;32.25;15.55;;;1.10;99.90;;;;;;5032814;28;20091;-76
2022/12/12 05:32:24;;;;;;;32.05;15.10;;;1.10;99.90;;;;;;5052392;28;20033;-76
2022/12/12 05:34:50;;;;;;;26.02;13.52;;;1.10;99.90;;;;;;5044891;28;20113;-76
2022/12/12 05:37:16;;;;;;;25.67;12.43;;;1.10;99.90;;;;;;5053258;28;21714;-75
2022/12/12 05:39:41;;;;;;;26.23;13.38;;;1.10;99.90;;;;;;5057398;28;20477;-74
2022/12/12 05:42:07;;;;;;;27.08;14.15;;;1.10;99.90;;;;;;5034587;28;20554;-74
2022/12/12 05:44:32;;;;;;;27.15;13.52;;;1.10;99.90;;;;;;5045523;28;20807;-74
2022/12/12 05:46:58;;;;;;;30.25;15.82;;;1.10;99.90;;;;;;5059559;28;20046;-75
2022/12/12 05:49:24;;;;;;;32.35;16.83;;;1.10;99.90;;;;;;5054638;28;20861;-76
2022/12/12 05:51:49;;;;;;;32.65;16.45;;;1.10;99.90;;;;;;5045149;28;20123;-73
2022/12/12 05:54:15;;;;;;;27.65;15.13;;;1.10;99.90;;;;;;5046766;28;20061;-76
2022/12/12 05:56:40;;;;;;;31.40;16.67;;;1.10;99.90;;;;;;5046294;28;20136;-74
2022/12/12 05:59:06;;;;;;;28.77;13.88;;;1.10;99.90;;;;;;5043954;28;20036;-75
2022/12/12 06:01:32;;;;;;;26.38;14.68;;;1.10;99.90;;;;;;5043316;28;20102;-75
2022/12/12 06:03:57;;;;;;;28.27;14.77;;;1.00;99.90;;;;;;5045317;28;20020;-75
2022/12/12 06:06:23;;;;;;;27.65;14.15;;;1.10;99.90;;;;;;5058582;28;20043;-74
2022/12/12 06:08:48;;;;;;;26.45;13.93;;;1.10;99.90;;;;;;5041146;28;20031;-75
2022/12/12 06:11:14;;;;;;;28.15;15.07;;;1.00;99.90;;;;;;5048823;28;20029;-75
2022/12/12 06:13:40;;;;;;;33.65;16.05;;;1.00;99.90;;;;;;5048201;28;20495;-75
2022/12/12 06:16:15;;;;;;;32.72;16.13;;;1.10;99.90;;;;;;5053734;28;20029;-75
2022/12/12 06:18:40;;;;;;;29.67;14.85;;;1.10;99.90;;;;;;5053904;28;20484;-75
2022/12/12 06:21:08;;;;;;;29.70;15.52;;;1.10;99.90;;;;;;5041703;28;20040;-76
2022/12/12 06:23:36;;;;;;;29.77;15.65;;;1.10;99.90;;;;;;5038415;28;20040;-75
2022/12/12 06:26:01;;;;;;;29.15;15.23;;;1.00;99.90;;;;;;5046711;28;20399;-75
2022/12/12 06:28:27;;;;;;;32.28;16.27;;;1.00;99.90;;;;;;5051835;28;20036;-76
2022/12/12 06:30:53;;;;;;;30.27;14.85;;;1.10;99.90;;;;;;5047554;28;20095;-76
2022/12/12 06:33:18;;;;;;;31.35;16.35;;;1.10;99.90;;;;;;5044735;28;20118;-77
2022/12/12 06:35:45;;;;;;;30.52;15.25;;;1.10;99.90;;;;;;5045542;28;20040;-76
2022/12/12 06:38:11;;;;;;;30.42;15.75;;;1.00;99.90;;;;;;5048641;28;20071;-76
2022/12/12 06:40:39;;;;;;;27.50;14.23;;;1.10;99.90;;;;;;5038572;28;20040;-75
2022/12/12 06:43:04;;;;;;;27.52;13.73;;;1.10;99.90;;;;;;5032800;28;20030;-75
2022/12/12 06:45:30;;;;;;;28.73;14.00;;;1.00;99.90;;;;;;5046518;28;20045;-76
2022/12/12 06:47:55;;;;;;;31.35;15.50;;;1.00;99.90;;;;;;5041378;28;20757;-75
2022/12/12 06:50:21;;;;;;;29.98;15.50;;;1.10;99.90;;;;;;5038378;28;20035;-75
2022/12/12 06:52:47;;;;;;;29.15;14.48;;;1.10;99.90;;;;;;5033786;28;20264;-76
2022/12/12 06:55:12;;;;;;;23.63;13.35;;;1.00;99.90;;;;;;5056860;28;20078;-75
2022/12/12 06:57:38;;;;;;;27.80;13.85;;;1.00;99.90;;;;;;5056202;28;20040;-77
2022/12/12 07:00:04;;;;;;;31.83;15.27;;;1.00;99.90;;;;;;5029649;28;20405;-76
2022/12/12 07:02:30;;;;;;;28.30;13.98;;;1.00;99.90;;;;;;5030412;28;20120;-76
2022/12/12 07:04:56;;;;;;;29.95;14.35;;;1.00;99.90;;;;;;5036407;28;20451;-75
2022/12/12 07:07:21;;;;;;;25.27;12.90;;;1.00;99.90;;;;;;5034363;28;20033;-76
2022/12/12 07:09:47;;;;;;;29.63;15.05;;;1.00;99.90;;;;;;5044077;28;20044;-75
2022/12/12 07:12:12;;;;;;;26.90;13.90;;;1.00;99.90;;;;;;5040462;28;20158;-75
2022/12/12 07:14:38;;;;;;;26.33;13.45;;;1.00;99.90;;;;;;5038052;28;20483;-76
2022/12/12 07:17:04;;;;;;;24.77;13.32;;;1.00;99.90;;;;;;5047016;28;20033;-76
2022/12/12 07:19:30;;;;;;;25.17;12.90;;;1.00;99.90;;;;;;5034827;28;20082;-75
2022/12/12 07:21:55;;;;;;;28.50;14.57;;;1.00;99.90;;;;;;5035142;28;20049;-76
2022/12/12 07:24:21;;;;;;;27.95;14.75;;;1.00;99.90;;;;;;5038036;28;20037;-76
2022/12/12 07:26:46;;;;;;;34.20;16.42;;;1.00;99.90;;;;;;5047118;28;20029;-75
2022/12/12 07:29:12;;;;;;;28.08;16.15;;;1.00;99.90;;;;;;5040328;28;20025;-75
2022/12/12 07:31:38;;;;;;;27.10;14.73;;;1.00;99.90;;;;;;5036135;28;20044;-76
2022/12/12 07:34:03;;;;;;;24.20;13.75;;;1.00;99.90;;;;;;5037960;28;20036;-75
2022/12/12 07:36:29;;;;;;;25.20;14.10;;;1.00;99.90;;;;;;5040567;28;20028;-75
2022/12/12 07:38:54;;;;;;;27.80;14.40;;;1.00;99.90;;;;;;5050513;28;20035;-77
2022/12/12 07:41:20;;;;;;;25.50;13.48;;;1.00;99.90;;;;;;5059519;28;20473;-77
2022/12/12 07:43:48;;;;;;;28.98;15.38;;;1.00;99.90;;;;;;5030324;28;20042;-75
2022/12/12 07:46:19;;;;;;;29.20;15.00;;;1.00;99.90;;;;;;5054095;28;20071;-76
2022/12/12 07:48:45;;;;;;;29.55;14.57;;;0.90;99.90;;;;;;5041177;28;20088;-76
2022/12/12 07:51:13;;;;;;;29.33;14.05;;;0.90;99.90;;;;;;5042250;28;20037;-77
2022/12/12 07:53:39;;;;;;;28.80;15.32;;;0.90;99.90;;;;;;5038808;28;20052;-75
2022/12/12 07:56:10;;;;;;;29.95;15.98;;;0.90;99.90;;;;;;5038922;28;20123;-76
2022/12/12 07:58:36;;;;;;;25.77;13.85;;;0.90;99.90;;;;;;5034093;28;20514;-76
2022/12/12 08:01:29;;;;;;;29.80;15.70;;;0.90;99.90;;;;;;5064281;28;20087;-75
2022/12/12 08:03:55;;;;;;;24.35;13.23;;;0.90;99.90;;;;;;5036653;28;20462;-76
2022/12/12 08:06:22;;;;;;;20.58;12.10;;;0.90;99.90;;;;;;5038598;28;20099;-76
2022/12/12 08:08:49;;;;;;;20.40;11.32;;;0.90;99.90;;;;;;5037793;28;20034;-76
2022/12/12 08:11:18;;;;;;;23.77;12.60;;;1.00;99.90;;;;;;5035789;28;20071;-76
2022/12/12 08:13:44;;;;;;;21.25;12.05;;;0.90;99.90;;;;;;5041700;28;20043;-77
2022/12/12 08:16:18;;;;;;;24.63;13.43;;;0.90;99.90;;;;;;5041302;28;20051;-76
2022/12/12 08:18:44;;;;;;;20.50;10.30;;;0.90;99.90;;;;;;5035676;28;20025;-76
2022/12/12 08:21:11;;;;;;;18.80;10.43;;;0.90;99.90;;;;;;5034960;28;20047;-76
2022/12/12 08:23:38;;;;;;;18.60;11.40;;;0.90;99.90;;;;;;5036564;28;20109;-76
2022/12/12 08:26:13;;;;;;;22.90;12.75;;;1.00;99.90;;;;;;5037640;28;20033;-78
2022/12/12 08:28:40;;;;;;;23.13;12.23;;;1.00;99.90;;;;;;5026879;28;20037;-76
2022/12/12 08:31:07;;;;;;;21.83;12.80;;;1.00;99.90;;;;;;5031105;28;20039;-76
2022/12/12 08:33:33;;;;;;;25.00;12.77;;;1.00;99.90;;;;;;5028338;28;20037;-76
2022/12/12 08:35:58;;;;;;;21.20;12.32;;;1.00;99.90;;;;;;5042016;28;20097;-77
2022/12/12 08:38:24;;;;;;;21.00;11.98;;;1.00;99.90;;;;;;5035398;28;20082;-77
2022/12/12 08:40:50;;;;;;;19.98;11.18;;;1.00;99.90;;;;;;5035548;28;20029;-76
2022/12/12 08:43:15;;;;;;;19.88;11.55;;;1.00;99.90;;;;;;5045313;28;20025;-75
2022/12/12 08:45:41;;;;;;;21.40;11.98;;;1.00;99.90;;;;;;5039874;28;20081;-76
2022/12/12 08:48:09;;;;;;;24.35;13.18;;;1.00;99.90;;;;;;5039044;28;20091;-76
2022/12/12 08:50:35;;;;;;;19.35;11.65;;;1.10;99.90;;;;;;5036327;28;20055;-75
2022/12/12 08:53:00;;;;;;;25.17;14.10;;;1.10;99.90;;;;;;5030780;28;20655;-78
2022/12/12 08:55:26;;;;;;;21.63;11.75;;;1.10;99.90;;;;;;5046882;28;20059;-78
2022/12/12 08:57:51;;;;;;;20.63;12.52;;;1.00;99.90;;;;;;5031670;28;21094;-77
2022/12/12 09:00:17;;;;;;;24.30;13.48;;;1.10;99.90;;;;;;5045540;28;20595;-74
2022/12/12 09:02:43;;;;;;;30.70;17.00;;;1.10;99.90;;;;;;5046996;28;20033;-76
2022/12/12 09:05:09;;;;;;;28.10;15.00;;;1.10;99.90;;;;;;5045112;28;20102;-77
2022/12/12 09:07:35;;;;;;;28.90;15.45;;;1.20;99.90;;;;;;5038085;28;20040;-76
2022/12/12 09:10:01;;;;;;;27.83;15.52;;;1.20;99.90;;;;;;5034770;28;20048;-74
2022/12/12 09:12:27;;;;;;;34.95;18.48;;;1.20;99.90;;;;;;5031300;28;20051;-78
2022/12/12 09:14:52;;;;;;;26.75;15.65;;;1.20;99.90;;;;;;5040852;28;20090;-79
2022/12/12 09:17:18;;;;;;;27.08;15.40;;;1.20;99.90;;;;;;5033702;28;20025;-78
2022/12/12 09:19:44;;;;;;;25.02;13.70;;;1.30;99.90;;;;;;5064182;28;22108;-77
2022/12/12 09:22:10;;;;;;;25.40;14.07;;;1.30;99.90;;;;;;5069096;28;20586;-76
2022/12/12 09:24:36;;;;;;;27.73;16.17;;;1.30;99.90;;;;;;5040638;28;20047;-77
2022/12/12 09:27:02;;;;;;;21.65;12.13;;;1.30;99.90;;;;;;5041321;28;20121;-77
2022/12/12 09:29:28;;;;;;;18.90;10.60;;;1.30;99.90;;;;;;5037369;28;20033;-77
2022/12/12 09:31:54;;;;;;;19.17;11.13;;;1.30;99.90;;;;;;5037691;28;20035;-77
2022/12/12 09:34:19;;;;;;;18.20;10.40;;;1.30;99.90;;;;;;5029303;28;20029;-77
2022/12/12 09:36:45;;;;;;;20.60;10.85;;;1.30;99.90;;;;;;5035293;28;20029;-75
2022/12/12 09:39:11;;;;;;;19.77;11.05;;;1.30;99.90;;;;;;5038271;28;20024;-76
2022/12/12 09:41:36;;;;;;;16.52;10.60;;;1.30;99.90;;;;;;5032315;28;20537;-75
2022/12/12 09:44:06;;;;;;;18.85;10.68;;;1.30;99.90;;;;;;5032324;28;20068;-78
2022/12/12 09:46:37;;;;;;;21.15;11.88;;;1.20;99.90;;;;;;5051492;28;20028;-78
2022/12/12 09:49:12;;;;;;;18.27;10.80;;;1.30;99.90;;;;;;5044158;28;20036;-79
2022/12/12 09:51:38;;;;;;;20.42;11.55;;;1.30;99.90;;;;;;5049441;28;20037;-75
2022/12/12 09:54:04;;;;;;;21.05;11.15;;;1.30;99.90;;;;;;5041214;28;20057;-77
2022/12/12 09:56:46;;;;;;;21.50;11.60;;;1.30;99.90;;;;;;5045664;28;20124;-76
2022/12/12 09:59:26;;;;;;;20.58;11.88;;;1.30;99.90;;;;;;5038150;28;20034;-77
2022/12/12 10:02:19;;;;;;;20.80;11.50;;;1.40;99.90;;;;;;5045265;28;20037;-79
2022/12/12 10:05:19;;;;;;;23.50;13.00;;;1.40;99.90;;;;;;5034381;28;20089;-78
2022/12/12 10:08:19;;;;;;;21.40;11.82;;;1.50;99.90;;;;;;5041194;28;20037;-77
2022/12/12 10:10:48;;;;;;;20.35;11.52;;;1.60;99.90;;;;;;5034186;28;20053;-77
2022/12/12 10:13:19;;;;;;;19.85;12.20;;;1.60;99.90;;;;;;5041614;28;20068;-73
2022/12/12 10:16:10;;;;;;;20.48;12.07;;;1.70;99.90;;;;;;5046366;28;20036;-76
2022/12/12 10:18:42;;;;;;;21.42;12.80;;;1.70;99.90;;;;;;5040199;28;20037;-76
2022/12/12 10:21:16;;;;;;;19.30;11.48;;;1.80;99.90;;;;;;5044603;28;20677;-75
2022/12/12 10:23:52;;;;;;;21.75;12.40;;;1.90;99.90;;;;;;5035506;28;20033;-75
2022/12/12 10:26:26;;;;;;;18.27;11.35;;;2.00;99.90;;;;;;5037293;28;20052;-77
2022/12/12 10:28:54;;;;;;;22.23;13.68;;;2.00;99.90;;;;;;5032703;28;20033;-75
2022/12/12 10:31:20;;;;;;;20.35;11.98;;;2.10;99.90;;;;;;5035246;28;20059;-78
2022/12/12 10:34:05;;;;;;;20.90;12.50;;;2.10;99.90;;;;;;5037896;28;20419;-75
2022/12/12 10:36:52;;;;;;;20.83;12.20;;;2.20;99.90;;;;;;5043863;28;20040;-77
2022/12/12 10:39:50;;;;;;;21.20;13.20;;;2.20;99.90;;;;;;5039210;28;20059;-79
2022/12/12 10:42:33;;;;;;;21.45;12.70;;;2.20;99.90;;;;;;5039479;28;20037;-77
2022/12/12 10:45:05;;;;;;;20.67;12.18;;;2.20;99.90;;;;;;5039613;28;20686;-78
2022/12/12 10:47:32;;;;;;;21.15;12.82;;;2.10;99.90;;;;;;5035760;28;20024;-77
2022/12/12 10:50:08;;;;;;;22.27;13.07;;;2.20;99.90;;;;;;5032842;28;21881;-77
2022/12/12 10:52:34;;;;;;;22.60;13.88;;;2.20;99.90;;;;;;5035350;28;20025;-76
2022/12/12 10:55:00;;;;;;;21.35;12.52;;;2.20;99.90;;;;;;5037541;28;20114;-74
2022/12/12 10:57:33;;;;;;;24.98;14.38;;;2.20;99.90;;;;;;5034589;28;20021;-76
2022/12/12 10:59:59;;;;;;;24.55;14.15;;;2.20;99.90;;;;;;5032475;28;20036;-77
2022/12/12 11:02:33;;;;;;;23.38;13.90;;;2.30;99.90;;;;;;5040720;28;20037;-74
2022/12/12 11:05:15;;;;;;;25.25;14.52;;;2.30;99.90;;;;;;5043086;28;20386;-77
2022/12/12 11:07:45;;;;;;;38.70;20.50;;;2.30;99.90;;;;;;5043561;28;20033;-78
2022/12/12 11:10:26;;;;;;;28.95;16.63;;;2.40;99.90;;;;;;5045029;28;20064;-76
2022/12/12 11:13:15;;;;;;;26.65;15.50;;;2.40;99.90;;;;;;5038256;28;20034;-76
2022/12/12 11:15:48;;;;;;;26.50;15.35;;;2.40;99.90;;;;;;5031847;28;20041;-77
2022/12/12 11:18:17;;;;;;;27.83;15.65;;;2.40;99.90;;;;;;5043925;28;20044;-77
2022/12/12 11:21:09;;;;;;;22.85;14.02;;;2.40;99.90;;;;;;5035717;28;20052;-76
2022/12/12 11:23:39;;;;;;;24.50;14.15;;;2.40;99.90;;;;;;5042642;28;20538;-77
2022/12/12 11:26:15;;;;;;;23.75;14.63;;;2.40;99.90;;;;;;5035786;28;20055;-76
2022/12/12 11:28:45;;;;;;;22.95;13.82;;;2.40;99.90;;;;;;5034491;28;20517;-75
2022/12/12 11:31:16;;;;;;;27.35;16.33;;;2.40;99.90;;;;;;5034352;28;20035;-77
2022/12/12 11:33:51;;;;;;;28.15;16.23;;;2.50;99.90;;;;;;5045535;28;20510;-78
2022/12/12 11:36:20;;;;;;;26.58;16.17;;;2.40;99.90;;;;;;5036226;28;20037;-77
2022/12/12 11:38:53;;;;;;;25.27;13.48;;;2.50;99.90;;;;;;5035210;28;20067;-77
2022/12/12 11:41:19;;;;;;;26.52;14.93;;;2.50;99.90;;;;;;5031149;28;20502;-78
2022/12/12 11:43:47;;;;;;;22.50;14.40;;;2.40;99.90;;;;;;5036435;28;20120;-75
2022/12/12 11:46:12;;;;;;;24.20;14.68;;;2.40;99.90;;;;;;5044140;28;20021;-78
2022/12/12 11:48:50;;;;;;;29.23;17.48;;;2.40;99.90;;;;;;5031867;28;20091;-77
2022/12/12 11:51:43;;;;;;;34.65;22.08;;;2.40;99.90;;;;;;5033875;28;20163;-78
2022/12/12 11:54:17;;;;;;;34.17;20.55;;;2.30;99.90;;;;;;5037344;28;20056;-75
2022/12/12 11:56:54;;;;;;;32.95;20.77;;;2.30;99.90;;;;;;5035005;28;20029;-79
2022/12/12 11:59:41;;;;;;;33.72;19.10;;;2.20;99.90;;;;;;5037336;28;20097;-79
2022/12/12 12:02:34;;;;;;;34.97;19.08;;;2.10;99.90;;;;;;5045958;28;20032;-76
2022/12/12 12:05:08;;;;;;;28.88;16.75;;;2.20;99.90;;;;;;5030638;28;20115;-77
2022/12/12 12:07:50;;;;;;;33.47;17.85;;;2.30;99.90;;;;;;5037509;28;20029;-79
2022/12/12 12:10:36;;;;;;;34.97;19.48;;;2.20;99.90;;;;;;5044392;28;20028;-77
2022/12/12 12:13:59;;;;;;;33.85;17.92;;;2.20;99.90;;;;;;5040841;28;20047;-77
2022/12/12 12:16:44;;;;;;;30.73;16.02;;;2.20;99.90;;;;;;5001353;28;20477;-77
2022/12/12 12:19:40;;;;;;;34.45;18.85;;;2.10;99.90;;;;;;5008672;28;20038;-77
2022/12/12 12:22:33;;;;;;;40.90;21.88;;;2.10;99.90;;;;;;5038480;28;20049;-74
2022/12/12 12:25:22;;;;;;;38.50;22.27;;;2.00;99.90;;;;;;5031460;28;20068;-77
2022/12/12 12:27:59;;;;;;;43.05;22.92;;;2.00;99.90;;;;;;5040600;28;20037;-77
2022/12/12 12:30:58;;;;;;;39.90;22.42;;;2.00;99.90;;;;;;5039700;28;20025;-78
2022/12/12 12:34:15;;;;;;;34.33;19.27;;;2.00;99.90;;;;;;5030360;28;20036;-73
2022/12/12 12:37:04;;;;;;;35.13;18.63;;;1.90;99.90;;;;;;5019582;28;20026;-79
2022/12/12 12:39:47;;;;;;;34.75;18.88;;;2.00;99.90;;;;;;5011003;28;21561;-75
2022/12/12 12:42:34;;;;;;;39.30;20.90;;;2.00;99.90;;;;;;5031057;28;20075;-77
2022/12/12 12:45:22;;;;;;;41.58;20.55;;;1.90;99.90;;;;;;5033789;28;20086;-76
2022/12/12 12:48:01;;;;;;;41.35;22.67;;;1.90;99.90;;;;;;5038385;28;20096;-77
2022/12/12 12:50:37;;;;;;;40.15;19.98;;;1.90;99.90;;;;;;5049883;28;20072;-77
2022/12/12 12:53:16;;;;;;;40.13;21.42;;;1.90;99.90;;;;;;5043322;28;20058;-75
2022/12/12 12:55:48;;;;;;;40.17;22.25;;;1.90;99.90;;;;;;5037375;28;20090;-76
2022/12/12 12:58:20;;;;;;;41.50;20.73;;;1.90;99.90;;;;;;5049106;28;20076;-78
2022/12/12 13:00:54;;;;;;;40.05;19.88;;;1.90;99.90;;;;;;5043455;28;20110;-77
2022/12/12 13:03:25;;;;;;;37.70;18.92;;;1.90;99.90;;;;;;5044310;28;20025;-74
2022/12/12 13:05:55;;;;;;;40.67;20.05;;;2.00;99.90;;;;;;5037122;28;20098;-77
2022/12/12 13:08:27;;;;;;;36.47;19.13;;;1.90;99.90;;;;;;5034569;28;20029;-77
2022/12/12 13:10:58;;;;;;;38.95;20.15;;;1.90;99.90;;;;;;5045191;28;20025;-77
2022/12/12 13:13:29;;;;;;;39.60;19.85;;;1.90;99.90;;;;;;5047911;28;20060;-77
2022/12/12 13:16:03;;;;;;;41.13;20.38;;;1.90;99.90;;;;;;5049719;28;20033;-77